sensor_id;sensor_type;location;lat;lon;timestamp;P1;durP1;ratioP1;P2;durP2;ratioP2
30862;SDS011;17573;55.922;37.540;2023-02-28T00:00:12;16.83;;;9.82;;
30862;SDS011;17573;55.922;37.540;2023-02-28T00:02:39;17.98;;;10.27;;
30862;SDS011;17573;55.922;37.540;2023-02-28T00:05:08;11.20;;;8.50;;
30862;SDS011;17573;55.922;37.540;2023-02-28T00:07:36;13.70;;;9.25;;
30862;SDS011;17573;55.922;37.540;2023-02-28T00:10:02;15.57;;;9.10;;
30862;SDS011;17573;55.922;37.540;2023-02-28T00:12:29;14.15;;;8.63;;
30862;SDS011;17573;55.922;37.540;2023-02-28T00:14:55;17.85;;;10.70;;
30862;SDS011;17573;55.922;37.540;2023-02-28T00:17:21;13.63;;;8.68;;
30862;SDS011;17573;55.922;37.540;2023-02-28T00:19:47;13.98;;;8.48;;
30862;SDS011;17573;55.922;37.540;2023-02-28T00:22:14;16.25;;;9.60;;
30862;SDS011;17573;55.922;37.540;2023-02-28T00:24:41;17.45;;;10.55;;
30862;SDS011;17573;55.922;37.540;2023-02-28T00:27:07;17.33;;;9.07;;
30862;SDS011;17573;55.922;37.540;2023-02-28T00:29:32;12.27;;;8.95;;
30862;SDS011;17573;55.922;37.540;2023-02-28T00:31:58;11.95;;;9.23;;
30862;SDS011;17573;55.922;37.540;2023-02-28T00:34:24;13.85;;;8.70;;
30862;SDS011;17573;55.922;37.540;2023-02-28T00:36:52;15.40;;;9.55;;
30862;SDS011;17573;55.922;37.540;2023-02-28T00:39:17;11.60;;;8.27;;
30862;SDS011;17573;55.922;37.540;2023-02-28T00:41:43;12.73;;;8.68;;
30862;SDS011;17573;55.922;37.540;2023-02-28T00:44:09;13.82;;;9.43;;
30862;SDS011;17573;55.922;37.540;2023-02-28T00:46:35;14.38;;;8.20;;
30862;SDS011;17573;55.922;37.540;2023-02-28T00:49:01;13.13;;;8.93;;
30862;SDS011;17573;55.922;37.540;2023-02-28T00:51:27;14.80;;;9.45;;
30862;SDS011;17573;55.922;37.540;2023-02-28T00:53:52;15.57;;;9.55;;
30862;SDS011;17573;55.922;37.540;2023-02-28T00:56:19;15.13;;;9.32;;
30862;SDS011;17573;55.922;37.540;2023-02-28T00:58:46;12.02;;;8.93;;
30862;SDS011;17573;55.922;37.540;2023-02-28T01:01:12;11.60;;;8.73;;
30862;SDS011;17573;55.922;37.540;2023-02-28T01:03:38;12.98;;;8.80;;
30862;SDS011;17573;55.922;37.540;2023-02-28T01:06:04;12.10;;;9.60;;
30862;SDS011;17573;55.922;37.540;2023-02-28T01:08:30;14.90;;;9.98;;
30862;SDS011;17573;55.922;37.540;2023-02-28T01:10:56;11.13;;;8.35;;
30862;SDS011;17573;55.922;37.540;2023-02-28T01:13:22;11.07;;;8.48;;
30862;SDS011;17573;55.922;37.540;2023-02-28T01:15:50;12.50;;;8.57;;
30862;SDS011;17573;55.922;37.540;2023-02-28T01:18:18;13.75;;;8.18;;
30862;SDS011;17573;55.922;37.540;2023-02-28T01:20:46;9.75;;;7.82;;
30862;SDS011;17573;55.922;37.540;2023-02-28T01:23:11;13.50;;;9.45;;
30862;SDS011;17573;55.922;37.540;2023-02-28T01:25:37;10.05;;;7.25;;
30862;SDS011;17573;55.922;37.540;2023-02-28T01:28:04;14.45;;;8.07;;
30862;SDS011;17573;55.922;37.540;2023-02-28T01:30:31;11.50;;;6.90;;
30862;SDS011;17573;55.922;37.540;2023-02-28T01:32:57;13.60;;;7.95;;
30862;SDS011;17573;55.922;37.540;2023-02-28T01:35:24;16.85;;;8.95;;
30862;SDS011;17573;55.922;37.540;2023-02-28T01:37:50;10.70;;;8.23;;
30862;SDS011;17573;55.922;37.540;2023-02-28T01:40:16;11.25;;;8.55;;
30862;SDS011;17573;55.922;37.540;2023-02-28T01:42:42;14.45;;;9.43;;
30862;SDS011;17573;55.922;37.540;2023-02-28T01:45:25;10.30;;;7.70;;
30862;SDS011;17573;55.922;37.540;2023-02-28T01:47:54;10.68;;;8.35;;
30862;SDS011;17573;55.922;37.540;2023-02-28T01:50:24;14.88;;;9.70;;
30862;SDS011;17573;55.922;37.540;2023-02-28T01:52:53;10.65;;;6.78;;
30862;SDS011;17573;55.922;37.540;2023-02-28T01:55:22;9.70;;;7.82;;
30862;SDS011;17573;55.922;37.540;2023-02-28T01:57:52;7.72;;;6.85;;
30862;SDS011;17573;55.922;37.540;2023-02-28T02:00:21;15.38;;;7.90;;
30862;SDS011;17573;55.922;37.540;2023-02-28T02:02:50;10.13;;;7.40;;
30862;SDS011;17573;55.922;37.540;2023-02-28T02:05:21;15.18;;;8.60;;
30862;SDS011;17573;55.922;37.540;2023-02-28T02:07:54;13.90;;;8.27;;
30862;SDS011;17573;55.922;37.540;2023-02-28T02:10:44;10.83;;;8.00;;
30862;SDS011;17573;55.922;37.540;2023-02-28T02:18:48;11.48;;;7.43;;
30862;SDS011;17573;55.922;37.540;2023-02-28T02:35:56;11.70;;;8.57;;
30862;SDS011;17573;55.922;37.540;2023-02-28T02:38:37;11.77;;;8.10;;
30862;SDS011;17573;55.922;37.540;2023-02-28T02:44:50;14.63;;;8.15;;
30862;SDS011;17573;55.922;37.540;2023-02-28T02:47:03;12.73;;;7.70;;
30862;SDS011;17573;55.922;37.540;2023-02-28T02:49:38;10.70;;;7.00;;
30862;SDS011;17573;55.922;37.540;2023-02-28T02:54:54;12.25;;;8.07;;
30862;SDS011;17573;55.922;37.540;2023-02-28T02:57:25;11.63;;;7.57;;
30862;SDS011;17573;55.922;37.540;2023-02-28T02:59:55;13.93;;;8.98;;
30862;SDS011;17573;55.922;37.540;2023-02-28T03:02:21;9.82;;;6.95;;
30862;SDS011;17573;55.922;37.540;2023-02-28T03:05:18;10.43;;;6.95;;
30862;SDS011;17573;55.922;37.540;2023-02-28T03:07:55;11.93;;;8.30;;
30862;SDS011;17573;55.922;37.540;2023-02-28T03:10:26;13.75;;;8.30;;
30862;SDS011;17573;55.922;37.540;2023-02-28T03:12:55;15.18;;;8.93;;
30862;SDS011;17573;55.922;37.540;2023-02-28T03:16:15;11.90;;;8.70;;
30862;SDS011;17573;55.922;37.540;2023-02-28T03:24:05;13.43;;;8.48;;
30862;SDS011;17573;55.922;37.540;2023-02-28T03:26:36;10.90;;;7.30;;
30862;SDS011;17573;55.922;37.540;2023-02-28T03:29:10;12.20;;;7.43;;
30862;SDS011;17573;55.922;37.540;2023-02-28T03:31:52;9.73;;;6.38;;
30862;SDS011;17573;55.922;37.540;2023-02-28T03:34:32;11.60;;;7.13;;
30862;SDS011;17573;55.922;37.540;2023-02-28T03:37:10;14.43;;;7.38;;
30862;SDS011;17573;55.922;37.540;2023-02-28T03:39:43;11.07;;;7.88;;
30862;SDS011;17573;55.922;37.540;2023-02-28T03:42:12;10.77;;;7.90;;
30862;SDS011;17573;55.922;37.540;2023-02-28T03:44:45;10.40;;;8.35;;
30862;SDS011;17573;55.922;37.540;2023-02-28T03:47:32;12.98;;;7.15;;
30862;SDS011;17573;55.922;37.540;2023-02-28T03:52:34;7.22;;;5.80;;
30862;SDS011;17573;55.922;37.540;2023-02-28T03:55:02;8.82;;;6.75;;
30862;SDS011;17573;55.922;37.540;2023-02-28T04:00:06;11.93;;;7.35;;
30862;SDS011;17573;55.922;37.540;2023-02-28T04:02:40;9.88;;;6.78;;
30862;SDS011;17573;55.922;37.540;2023-02-28T04:05:06;11.02;;;7.65;;
30862;SDS011;17573;55.922;37.540;2023-02-28T04:07:32;10.07;;;6.90;;
30862;SDS011;17573;55.922;37.540;2023-02-28T04:09:59;13.40;;;8.50;;
30862;SDS011;17573;55.922;37.540;2023-02-28T04:12:24;10.13;;;6.53;;
30862;SDS011;17573;55.922;37.540;2023-02-28T04:14:50;13.93;;;6.85;;
30862;SDS011;17573;55.922;37.540;2023-02-28T04:17:16;14.18;;;6.95;;
30862;SDS011;17573;55.922;37.540;2023-02-28T04:19:42;15.77;;;7.72;;
30862;SDS011;17573;55.922;37.540;2023-02-28T04:22:08;9.15;;;7.43;;
30862;SDS011;17573;55.922;37.540;2023-02-28T04:24:34;11.82;;;6.97;;
30862;SDS011;17573;55.922;37.540;2023-02-28T04:27:01;8.43;;;6.22;;
30862;SDS011;17573;55.922;37.540;2023-02-28T04:29:27;13.77;;;7.53;;
30862;SDS011;17573;55.922;37.540;2023-02-28T04:31:55;9.35;;;7.10;;
30862;SDS011;17573;55.922;37.540;2023-02-28T04:34:28;14.20;;;7.28;;
30862;SDS011;17573;55.922;37.540;2023-02-28T04:36:55;8.90;;;7.30;;
30862;SDS011;17573;55.922;37.540;2023-02-28T04:39:22;11.32;;;8.75;;
30862;SDS011;17573;55.922;37.540;2023-02-28T04:41:48;13.40;;;7.25;;
30862;SDS011;17573;55.922;37.540;2023-02-28T04:44:15;8.25;;;6.10;;
30862;SDS011;17573;55.922;37.540;2023-02-28T04:46:41;9.10;;;6.75;;
30862;SDS011;17573;55.922;37.540;2023-02-28T04:49:08;9.73;;;7.13;;
30862;SDS011;17573;55.922;37.540;2023-02-28T04:51:36;9.10;;;5.80;;
30862;SDS011;17573;55.922;37.540;2023-02-28T04:54:01;7.57;;;5.60;;
30862;SDS011;17573;55.922;37.540;2023-02-28T04:56:27;8.63;;;6.93;;
30862;SDS011;17573;55.922;37.540;2023-02-28T04:58:53;9.65;;;7.50;;
30862;SDS011;17573;55.922;37.540;2023-02-28T05:01:27;7.93;;;6.55;;
30862;SDS011;17573;55.922;37.540;2023-02-28T05:03:58;11.85;;;7.68;;
30862;SDS011;17573;55.922;37.540;2023-02-28T05:06:26;9.77;;;7.20;;
30862;SDS011;17573;55.922;37.540;2023-02-28T05:08:53;11.20;;;6.90;;
30862;SDS011;17573;55.922;37.540;2023-02-28T05:13:59;13.10;;;7.40;;
30862;SDS011;17573;55.922;37.540;2023-02-28T05:16:24;10.20;;;8.18;;
30862;SDS011;17573;55.922;37.540;2023-02-28T05:18:50;9.95;;;6.80;;
30862;SDS011;17573;55.922;37.540;2023-02-28T05:21:23;12.07;;;6.75;;
30862;SDS011;17573;55.922;37.540;2023-02-28T05:23:49;7.88;;;6.22;;
30862;SDS011;17573;55.922;37.540;2023-02-28T05:26:15;11.20;;;7.75;;
30862;SDS011;17573;55.922;37.540;2023-02-28T05:28:41;8.13;;;6.55;;
30862;SDS011;17573;55.922;37.540;2023-02-28T05:31:08;10.27;;;6.47;;
30862;SDS011;17573;55.922;37.540;2023-02-28T05:33:36;12.07;;;7.75;;
30862;SDS011;17573;55.922;37.540;2023-02-28T05:36:02;11.38;;;6.80;;
30862;SDS011;17573;55.922;37.540;2023-02-28T05:38:29;9.18;;;6.75;;
30862;SDS011;17573;55.922;37.540;2023-02-28T05:40:55;9.50;;;5.93;;
30862;SDS011;17573;55.922;37.540;2023-02-28T05:43:21;8.40;;;6.10;;
30862;SDS011;17573;55.922;37.540;2023-02-28T05:45:48;10.40;;;7.00;;
30862;SDS011;17573;55.922;37.540;2023-02-28T05:48:13;13.02;;;7.03;;
30862;SDS011;17573;55.922;37.540;2023-02-28T05:50:39;6.90;;;5.93;;
30862;SDS011;17573;55.922;37.540;2023-02-28T05:53:06;11.02;;;6.95;;
30862;SDS011;17573;55.922;37.540;2023-02-28T05:55:32;6.85;;;6.10;;
30862;SDS011;17573;55.922;37.540;2023-02-28T05:57:57;9.43;;;6.68;;
30862;SDS011;17573;55.922;37.540;2023-02-28T06:00:23;7.95;;;6.00;;
30862;SDS011;17573;55.922;37.540;2023-02-28T06:02:49;7.53;;;6.45;;
30862;SDS011;17573;55.922;37.540;2023-02-28T06:05:17;6.25;;;5.55;;
30862;SDS011;17573;55.922;37.540;2023-02-28T06:07:43;15.60;;;6.07;;
30862;SDS011;17573;55.922;37.540;2023-02-28T06:10:10;9.70;;;6.25;;
30862;SDS011;17573;55.922;37.540;2023-02-28T06:12:37;10.32;;;6.18;;
30862;SDS011;17573;55.922;37.540;2023-02-28T06:15:03;8.98;;;6.75;;
30862;SDS011;17573;55.922;37.540;2023-02-28T06:17:29;9.52;;;5.97;;
30862;SDS011;17573;55.922;37.540;2023-02-28T06:19:55;15.75;;;7.65;;
30862;SDS011;17573;55.922;37.540;2023-02-28T06:22:21;6.30;;;5.70;;
30862;SDS011;17573;55.922;37.540;2023-02-28T06:24:47;7.68;;;6.13;;
30862;SDS011;17573;55.922;37.540;2023-02-28T06:27:13;7.70;;;6.03;;
30862;SDS011;17573;55.922;37.540;2023-02-28T06:29:39;7.18;;;5.97;;
30862;SDS011;17573;55.922;37.540;2023-02-28T06:32:05;6.53;;;5.65;;
30862;SDS011;17573;55.922;37.540;2023-02-28T06:34:31;9.48;;;6.28;;
30862;SDS011;17573;55.922;37.540;2023-02-28T06:36:59;9.40;;;6.60;;
30862;SDS011;17573;55.922;37.540;2023-02-28T06:39:30;8.50;;;5.72;;
30862;SDS011;17573;55.922;37.540;2023-02-28T06:41:56;6.82;;;5.22;;
30862;SDS011;17573;55.922;37.540;2023-02-28T06:44:22;7.40;;;6.57;;
30862;SDS011;17573;55.922;37.540;2023-02-28T06:46:48;7.15;;;6.22;;
30862;SDS011;17573;55.922;37.540;2023-02-28T06:49:14;9.35;;;6.00;;
30862;SDS011;17573;55.922;37.540;2023-02-28T06:51:41;15.77;;;6.28;;
30862;SDS011;17573;55.922;37.540;2023-02-28T06:54:11;10.63;;;6.57;;
30862;SDS011;17573;55.922;37.540;2023-02-28T06:56:38;6.90;;;6.07;;
30862;SDS011;17573;55.922;37.540;2023-02-28T06:59:04;8.77;;;6.50;;
30862;SDS011;17573;55.922;37.540;2023-02-28T07:01:31;8.80;;;6.63;;
30862;SDS011;17573;55.922;37.540;2023-02-28T07:03:58;7.90;;;7.10;;
30862;SDS011;17573;55.922;37.540;2023-02-28T07:06:25;10.30;;;6.13;;
30862;SDS011;17573;55.922;37.540;2023-02-28T07:08:52;5.72;;;4.82;;
30862;SDS011;17573;55.922;37.540;2023-02-28T07:11:19;8.60;;;6.18;;
30862;SDS011;17573;55.922;37.540;2023-02-28T07:13:45;11.02;;;6.63;;
30862;SDS011;17573;55.922;37.540;2023-02-28T07:16:13;6.35;;;5.70;;
30862;SDS011;17573;55.922;37.540;2023-02-28T07:18:39;7.65;;;6.22;;
30862;SDS011;17573;55.922;37.540;2023-02-28T07:21:06;6.45;;;5.55;;
30862;SDS011;17573;55.922;37.540;2023-02-28T07:23:33;7.82;;;6.13;;
30862;SDS011;17573;55.922;37.540;2023-02-28T07:25:59;11.13;;;6.22;;
30862;SDS011;17573;55.922;37.540;2023-02-28T07:28:25;6.70;;;6.05;;
30862;SDS011;17573;55.922;37.540;2023-02-28T07:30:51;10.10;;;6.45;;
30862;SDS011;17573;55.922;37.540;2023-02-28T07:33:17;9.02;;;6.72;;
30862;SDS011;17573;55.922;37.540;2023-02-28T07:35:43;7.10;;;5.82;;
30862;SDS011;17573;55.922;37.540;2023-02-28T07:38:09;15.18;;;6.63;;
30862;SDS011;17573;55.922;37.540;2023-02-28T07:40:35;6.88;;;5.88;;
30862;SDS011;17573;55.922;37.540;2023-02-28T07:43:01;9.50;;;6.85;;
30862;SDS011;17573;55.922;37.540;2023-02-28T07:45:28;11.88;;;6.93;;
30862;SDS011;17573;55.922;37.540;2023-02-28T07:47:55;9.80;;;6.25;;
30862;SDS011;17573;55.922;37.540;2023-02-28T07:50:22;8.25;;;6.82;;
30862;SDS011;17573;55.922;37.540;2023-02-28T07:52:47;9.57;;;6.40;;
30862;SDS011;17573;55.922;37.540;2023-02-28T07:55:13;10.10;;;7.88;;
30862;SDS011;17573;55.922;37.540;2023-02-28T07:57:40;14.93;;;7.07;;
30862;SDS011;17573;55.922;37.540;2023-02-28T08:00:07;15.07;;;6.47;;
30862;SDS011;17573;55.922;37.540;2023-02-28T08:02:40;10.63;;;6.85;;
30862;SDS011;17573;55.922;37.540;2023-02-28T08:05:06;13.35;;;6.57;;
30862;SDS011;17573;55.922;37.540;2023-02-28T08:07:32;6.97;;;5.93;;
30862;SDS011;17573;55.922;37.540;2023-02-28T08:09:58;8.93;;;5.95;;
30862;SDS011;17573;55.922;37.540;2023-02-28T08:12:25;8.75;;;6.43;;
30862;SDS011;17573;55.922;37.540;2023-02-28T08:14:51;7.55;;;6.22;;
30862;SDS011;17573;55.922;37.540;2023-02-28T08:17:17;13.55;;;6.18;;
30862;SDS011;17573;55.922;37.540;2023-02-28T08:19:45;9.38;;;6.38;;
30862;SDS011;17573;55.922;37.540;2023-02-28T08:22:11;11.55;;;6.18;;
30862;SDS011;17573;55.922;37.540;2023-02-28T08:24:37;7.85;;;6.72;;
30862;SDS011;17573;55.922;37.540;2023-02-28T08:27:03;16.25;;;8.57;;
30862;SDS011;17573;55.922;37.540;2023-02-28T08:29:29;10.80;;;7.50;;
30862;SDS011;17573;55.922;37.540;2023-02-28T08:31:55;8.25;;;6.00;;
30862;SDS011;17573;55.922;37.540;2023-02-28T08:34:21;13.20;;;7.05;;
30862;SDS011;17573;55.922;37.540;2023-02-28T08:36:47;9.80;;;6.63;;
30862;SDS011;17573;55.922;37.540;2023-02-28T08:39:12;10.13;;;6.68;;
30862;SDS011;17573;55.922;37.540;2023-02-28T08:41:38;10.18;;;5.90;;
30862;SDS011;17573;55.922;37.540;2023-02-28T08:44:04;7.88;;;5.72;;
30862;SDS011;17573;55.922;37.540;2023-02-28T08:46:30;9.07;;;5.90;;
30862;SDS011;17573;55.922;37.540;2023-02-28T08:48:56;8.45;;;6.85;;
30862;SDS011;17573;55.922;37.540;2023-02-28T08:51:27;7.82;;;5.30;;
30862;SDS011;17573;55.922;37.540;2023-02-28T08:53:53;11.38;;;6.18;;
30862;SDS011;17573;55.922;37.540;2023-02-28T08:56:26;8.18;;;5.63;;
30862;SDS011;17573;55.922;37.540;2023-02-28T08:58:53;11.25;;;6.55;;
30862;SDS011;17573;55.922;37.540;2023-02-28T09:01:22;8.38;;;6.57;;
30862;SDS011;17573;55.922;37.540;2023-02-28T09:03:52;14.07;;;7.90;;
30862;SDS011;17573;55.922;37.540;2023-02-28T09:06:20;7.03;;;5.35;;
30862;SDS011;17573;55.922;37.540;2023-02-28T09:08:47;8.90;;;6.20;;
30862;SDS011;17573;55.922;37.540;2023-02-28T09:11:13;11.32;;;6.72;;
30862;SDS011;17573;55.922;37.540;2023-02-28T09:13:39;9.07;;;5.70;;
30862;SDS011;17573;55.922;37.540;2023-02-28T09:16:06;6.72;;;5.95;;
30862;SDS011;17573;55.922;37.540;2023-02-28T09:18:34;11.68;;;6.50;;
30862;SDS011;17573;55.922;37.540;2023-02-28T09:21:09;6.25;;;4.75;;
30862;SDS011;17573;55.922;37.540;2023-02-28T09:23:40;10.00;;;6.45;;
30862;SDS011;17573;55.922;37.540;2023-02-28T09:26:07;8.02;;;6.50;;
30862;SDS011;17573;55.922;37.540;2023-02-28T09:28:33;8.98;;;6.13;;
30862;SDS011;17573;55.922;37.540;2023-02-28T09:30:59;7.95;;;4.85;;
30862;SDS011;17573;55.922;37.540;2023-02-28T09:33:25;6.55;;;5.20;;
30862;SDS011;17573;55.922;37.540;2023-02-28T09:35:51;5.90;;;5.22;;
30862;SDS011;17573;55.922;37.540;2023-02-28T09:38:23;7.25;;;6.03;;
30862;SDS011;17573;55.922;37.540;2023-02-28T09:43:17;9.20;;;6.20;;
30862;SDS011;17573;55.922;37.540;2023-02-28T09:45:48;6.40;;;5.00;;
30862;SDS011;17573;55.922;37.540;2023-02-28T09:48:21;9.68;;;6.20;;
30862;SDS011;17573;55.922;37.540;2023-02-28T09:50:50;9.88;;;6.63;;
30862;SDS011;17573;55.922;37.540;2023-02-28T09:53:28;9.50;;;6.30;;
30862;SDS011;17573;55.922;37.540;2023-02-28T09:56:01;6.87;;;5.60;;
30862;SDS011;17573;55.922;37.540;2023-02-28T10:09:49;13.60;;;7.00;;
30862;SDS011;17573;55.922;37.540;2023-02-28T10:12:18;6.72;;;6.00;;
30862;SDS011;17573;55.922;37.540;2023-02-28T10:14:46;6.68;;;5.45;;
30862;SDS011;17573;55.922;37.540;2023-02-28T10:17:17;6.68;;;5.97;;
30862;SDS011;17573;55.922;37.540;2023-02-28T10:25:21;11.10;;;6.00;;
30862;SDS011;17573;55.922;37.540;2023-02-28T10:27:59;8.15;;;5.85;;
30862;SDS011;17573;55.922;37.540;2023-02-28T10:30:30;8.18;;;6.15;;
30862;SDS011;17573;55.922;37.540;2023-02-28T10:32:55;9.40;;;6.55;;
30862;SDS011;17573;55.922;37.540;2023-02-28T10:35:25;10.75;;;7.07;;
30862;SDS011;17573;55.922;37.540;2023-02-28T10:37:56;13.10;;;6.50;;
30862;SDS011;17573;55.922;37.540;2023-02-28T10:42:56;7.18;;;6.47;;
30862;SDS011;17573;55.922;37.540;2023-02-28T10:45:23;6.07;;;5.47;;
30862;SDS011;17573;55.922;37.540;2023-02-28T10:51:08;12.98;;;7.05;;
30862;SDS011;17573;55.922;37.540;2023-02-28T11:01:27;6.55;;;5.90;;
30862;SDS011;17573;55.922;37.540;2023-02-28T11:04:03;10.80;;;6.88;;
30862;SDS011;17573;55.922;37.540;2023-02-28T11:06:42;9.10;;;7.05;;
30862;SDS011;17573;55.922;37.540;2023-02-28T11:09:17;10.30;;;6.13;;
30862;SDS011;17573;55.922;37.540;2023-02-28T11:11:54;8.52;;;6.63;;
30862;SDS011;17573;55.922;37.540;2023-02-28T11:14:27;7.53;;;5.78;;
30862;SDS011;17573;55.922;37.540;2023-02-28T11:16:54;7.28;;;6.25;;
30862;SDS011;17573;55.922;37.540;2023-02-28T11:19:31;10.02;;;6.65;;
30862;SDS011;17573;55.922;37.540;2023-02-28T11:22:01;11.98;;;7.15;;
30862;SDS011;17573;55.922;37.540;2023-02-28T11:24:29;9.70;;;6.00;;
30862;SDS011;17573;55.922;37.540;2023-02-28T11:26:56;9.15;;;6.60;;
30862;SDS011;17573;55.922;37.540;2023-02-28T11:34:35;12.90;;;7.07;;
30862;SDS011;17573;55.922;37.540;2023-02-28T11:37:03;13.52;;;7.35;;
30862;SDS011;17573;55.922;37.540;2023-02-28T11:39:31;9.98;;;6.10;;
30862;SDS011;17573;55.922;37.540;2023-02-28T11:50:32;10.52;;;7.13;;
30862;SDS011;17573;55.922;37.540;2023-02-28T11:56:47;8.32;;;6.25;;
30862;SDS011;17573;55.922;37.540;2023-02-28T12:10:06;10.43;;;6.90;;
30862;SDS011;17573;55.922;37.540;2023-02-28T12:23:47;14.23;;;6.30;;
30862;SDS011;17573;55.922;37.540;2023-02-28T12:26:39;9.93;;;7.37;;
30862;SDS011;17573;55.922;37.540;2023-02-28T12:29:16;14.95;;;8.32;;
30862;SDS011;17573;55.922;37.540;2023-02-28T12:31:51;6.00;;;5.45;;
30862;SDS011;17573;55.922;37.540;2023-02-28T12:34:26;11.93;;;7.05;;
30862;SDS011;17573;55.922;37.540;2023-02-28T12:36:54;10.17;;;6.03;;
30862;SDS011;17573;55.922;37.540;2023-02-28T12:39:28;8.48;;;6.88;;
30862;SDS011;17573;55.922;37.540;2023-02-28T12:42:01;7.95;;;6.95;;
30862;SDS011;17573;55.922;37.540;2023-02-28T12:47:34;11.95;;;6.85;;
30862;SDS011;17573;55.922;37.540;2023-02-28T12:50:02;12.10;;;7.30;;
30862;SDS011;17573;55.922;37.540;2023-02-28T13:00:47;10.57;;;6.82;;
30862;SDS011;17573;55.922;37.540;2023-02-28T13:06:41;7.78;;;6.50;;
30862;SDS011;17573;55.922;37.540;2023-02-28T13:09:12;8.63;;;6.40;;
30862;SDS011;17573;55.922;37.540;2023-02-28T13:11:46;13.23;;;7.70;;
30862;SDS011;17573;55.922;37.540;2023-02-28T13:19:35;8.48;;;5.93;;
30862;SDS011;17573;55.922;37.540;2023-02-28T13:22:03;6.22;;;5.50;;
30862;SDS011;17573;55.922;37.540;2023-02-28T13:24:38;8.23;;;6.00;;
30862;SDS011;17573;55.922;37.540;2023-02-28T13:29:41;6.70;;;5.95;;
30862;SDS011;17573;55.922;37.540;2023-02-28T13:47:44;5.70;;;5.10;;
30862;SDS011;17573;55.922;37.540;2023-02-28T13:50:14;14.13;;;5.32;;
30862;SDS011;17573;55.922;37.540;2023-02-28T13:58:04;8.77;;;6.60;;
30862;SDS011;17573;55.922;37.540;2023-02-28T14:01:02;8.30;;;6.75;;
30862;SDS011;17573;55.922;37.540;2023-02-28T14:11:52;6.63;;;5.22;;
30862;SDS011;17573;55.922;37.540;2023-02-28T14:16:59;9.02;;;6.05;;
30862;SDS011;17573;55.922;37.540;2023-02-28T14:19:27;8.65;;;6.38;;
30862;SDS011;17573;55.922;37.540;2023-02-28T14:35:04;10.40;;;7.22;;
30862;SDS011;17573;55.922;37.540;2023-02-28T14:37:32;10.82;;;7.97;;
30862;SDS011;17573;55.922;37.540;2023-02-28T14:40:00;9.40;;;7.05;;
30862;SDS011;17573;55.922;37.540;2023-02-28T14:42:29;11.80;;;8.05;;
30862;SDS011;17573;55.922;37.540;2023-02-28T14:44:59;8.20;;;6.45;;
30862;SDS011;17573;55.922;37.540;2023-02-28T14:47:27;12.27;;;8.13;;
30862;SDS011;17573;55.922;37.540;2023-02-28T14:49:55;11.20;;;7.78;;
30862;SDS011;17573;55.922;37.540;2023-02-28T14:52:23;13.20;;;8.10;;
30862;SDS011;17573;55.922;37.540;2023-02-28T14:54:52;9.70;;;6.85;;
30862;SDS011;17573;55.922;37.540;2023-02-28T14:57:21;9.20;;;7.30;;
30862;SDS011;17573;55.922;37.540;2023-02-28T15:02:42;16.15;;;7.80;;
30862;SDS011;17573;55.922;37.540;2023-02-28T15:07:43;14.98;;;7.35;;
30862;SDS011;17573;55.922;37.540;2023-02-28T15:10:13;10.00;;;7.13;;
30862;SDS011;17573;55.922;37.540;2023-02-28T15:12:57;8.30;;;6.25;;
30862;SDS011;17573;55.922;37.540;2023-02-28T15:15:25;7.30;;;6.45;;
30862;SDS011;17573;55.922;37.540;2023-02-28T15:17:55;7.50;;;6.60;;
30862;SDS011;17573;55.922;37.540;2023-02-28T15:20:22;8.43;;;5.95;;
30862;SDS011;17573;55.922;37.540;2023-02-28T15:22:49;9.63;;;6.45;;
30862;SDS011;17573;55.922;37.540;2023-02-28T15:25:18;12.05;;;6.90;;
30862;SDS011;17573;55.922;37.540;2023-02-28T15:27:53;8.73;;;6.13;;
30862;SDS011;17573;55.922;37.540;2023-02-28T15:30:25;10.95;;;6.28;;
30862;SDS011;17573;55.922;37.540;2023-02-28T15:35:33;8.95;;;5.10;;
30862;SDS011;17573;55.922;37.540;2023-02-28T15:38:01;13.57;;;6.82;;
30862;SDS011;17573;55.922;37.540;2023-02-28T15:40:37;7.60;;;5.72;;
30862;SDS011;17573;55.922;37.540;2023-02-28T15:43:17;12.05;;;6.18;;
30862;SDS011;17573;55.922;37.540;2023-02-28T15:45:45;12.90;;;6.47;;
30862;SDS011;17573;55.922;37.540;2023-02-28T15:48:15;9.50;;;6.03;;
30862;SDS011;17573;55.922;37.540;2023-02-28T15:51:06;9.10;;;6.32;;
30862;SDS011;17573;55.922;37.540;2023-02-28T15:53:39;9.20;;;6.53;;
30862;SDS011;17573;55.922;37.540;2023-02-28T15:56:26;8.40;;;6.82;;
30862;SDS011;17573;55.922;37.540;2023-02-28T15:58:56;7.95;;;6.35;;
30862;SDS011;17573;55.922;37.540;2023-02-28T16:01:24;8.57;;;6.75;;
30862;SDS011;17573;55.922;37.540;2023-02-28T16:03:51;8.88;;;6.32;;
30862;SDS011;17573;55.922;37.540;2023-02-28T16:06:23;8.70;;;6.75;;
30862;SDS011;17573;55.922;37.540;2023-02-28T16:08:51;9.38;;;7.20;;
30862;SDS011;17573;55.922;37.540;2023-02-28T16:11:18;9.63;;;6.38;;
30862;SDS011;17573;55.922;37.540;2023-02-28T16:13:45;12.88;;;6.50;;
30862;SDS011;17573;55.922;37.540;2023-02-28T16:16:15;14.40;;;8.07;;
30862;SDS011;17573;55.922;37.540;2023-02-28T16:18:43;14.88;;;8.20;;
30862;SDS011;17573;55.922;37.540;2023-02-28T16:21:09;11.18;;;7.15;;
30862;SDS011;17573;55.922;37.540;2023-02-28T16:23:34;10.85;;;6.82;;
30862;SDS011;17573;55.922;37.540;2023-02-28T16:26:00;10.80;;;7.60;;
30862;SDS011;17573;55.922;37.540;2023-02-28T16:28:29;10.63;;;6.57;;
30862;SDS011;17573;55.922;37.540;2023-02-28T16:30:59;7.85;;;6.90;;
30862;SDS011;17573;55.922;37.540;2023-02-28T16:33:28;13.68;;;7.47;;
30862;SDS011;17573;55.922;37.540;2023-02-28T16:35:54;9.23;;;6.80;;
30862;SDS011;17573;55.922;37.540;2023-02-28T16:38:20;9.68;;;6.55;;
30862;SDS011;17573;55.922;37.540;2023-02-28T16:40:49;17.15;;;7.15;;
30862;SDS011;17573;55.922;37.540;2023-02-28T16:43:16;14.70;;;7.07;;
30862;SDS011;17573;55.922;37.540;2023-02-28T16:45:43;14.85;;;6.65;;
30862;SDS011;17573;55.922;37.540;2023-02-28T16:48:13;8.07;;;5.85;;
30862;SDS011;17573;55.922;37.540;2023-02-28T16:50:40;9.93;;;7.35;;
30862;SDS011;17573;55.922;37.540;2023-02-28T16:53:06;10.27;;;6.82;;
30862;SDS011;17573;55.922;37.540;2023-02-28T16:55:32;10.52;;;7.70;;
30862;SDS011;17573;55.922;37.540;2023-02-28T16:58:00;10.35;;;7.35;;
30862;SDS011;17573;55.922;37.540;2023-02-28T17:00:27;10.20;;;7.35;;
30862;SDS011;17573;55.922;37.540;2023-02-28T17:02:55;7.90;;;6.80;;
30862;SDS011;17573;55.922;37.540;2023-02-28T17:05:21;9.68;;;6.47;;
30862;SDS011;17573;55.922;37.540;2023-02-28T17:07:48;7.45;;;5.93;;
30862;SDS011;17573;55.922;37.540;2023-02-28T17:10:23;9.95;;;6.28;;
30862;SDS011;17573;55.922;37.540;2023-02-28T17:12:50;10.50;;;7.32;;
30862;SDS011;17573;55.922;37.540;2023-02-28T17:15:17;12.05;;;5.93;;
30862;SDS011;17573;55.922;37.540;2023-02-28T17:17:44;5.03;;;4.35;;
30862;SDS011;17573;55.922;37.540;2023-02-28T17:20:18;4.57;;;4.13;;
30862;SDS011;17573;55.922;37.540;2023-02-28T17:22:48;8.55;;;4.35;;
30862;SDS011;17573;55.922;37.540;2023-02-28T17:25:14;4.03;;;3.47;;
30862;SDS011;17573;55.922;37.540;2023-02-28T17:27:40;4.68;;;3.80;;
30862;SDS011;17573;55.922;37.540;2023-02-28T17:30:13;8.73;;;3.40;;
30862;SDS011;17573;55.922;37.540;2023-02-28T17:32:39;4.35;;;3.20;;
30862;SDS011;17573;55.922;37.540;2023-02-28T17:35:04;5.00;;;4.25;;
30862;SDS011;17573;55.922;37.540;2023-02-28T17:37:31;5.45;;;4.20;;
30862;SDS011;17573;55.922;37.540;2023-02-28T17:39:56;7.90;;;4.25;;
30862;SDS011;17573;55.922;37.540;2023-02-28T17:42:22;4.10;;;3.67;;
30862;SDS011;17573;55.922;37.540;2023-02-28T17:44:48;9.25;;;3.97;;